sensor_id;sensor_type;location;lat;lon;timestamp;temperature;humidity
44166;DHT22;30476;53.468;9.826;2022-09-09T00:04:28;16.90;99.90
44166;DHT22;30476;53.468;9.826;2022-09-09T00:12:23;16.90;99.90
44166;DHT22;30476;53.468;9.826;2022-09-09T00:14:56;16.90;99.90
44166;DHT22;30476;53.468;9.826;2022-09-09T00:17:34;16.90;99.90
44166;DHT22;30476;53.468;9.826;2022-09-09T00:20:30;16.90;99.90
44166;DHT22;30476;53.468;9.826;2022-09-09T00:23:02;17.00;99.90
44166;DHT22;30476;53.468;9.826;2022-09-09T00:25:37;17.00;99.90
44166;DHT22;30476;53.468;9.826;2022-09-09T00:28:17;17.00;99.90
44166;DHT22;30476;53.468;9.826;2022-09-09T00:30:46;17.00;99.90
44166;DHT22;30476;53.468;9.826;2022-09-09T00:33:17;17.00;99.90
44166;DHT22;30476;53.468;9.826;2022-09-09T00:35:58;17.00;99.90
44166;DHT22;30476;53.468;9.826;2022-09-09T00:38:35;17.00;99.90
44166;DHT22;30476;53.468;9.826;2022-09-09T00:44:01;17.10;99.90
44166;DHT22;30476;53.468;9.826;2022-09-09T00:46:44;17.10;99.90
44166;DHT22;30476;53.468;9.826;2022-09-09T00:49:37;17.10;99.90
44166;DHT22;30476;53.468;9.826;2022-09-09T00:57:31;17.10;99.90
44166;DHT22;30476;53.468;9.826;2022-09-09T01:00:27;17.10;99.90
44166;DHT22;30476;53.468;9.826;2022-09-09T01:14:29;16.90;99.90
44166;DHT22;30476;53.468;9.826;2022-09-09T01:16:59;16.90;99.90
44166;DHT22;30476;53.468;9.826;2022-09-09T01:28:11;16.80;99.90
44166;DHT22;30476;53.468;9.826;2022-09-09T01:30:41;16.80;99.90
44166;DHT22;30476;53.468;9.826;2022-09-09T01:33:14;16.80;99.90
44166;DHT22;30476;53.468;9.826;2022-09-09T01:35:51;16.70;99.90
44166;DHT22;30476;53.468;9.826;2022-09-09T01:38:20;16.70;99.90
44166;DHT22;30476;53.468;9.826;2022-09-09T01:40:47;16.70;99.90
44166;DHT22;30476;53.468;9.826;2022-09-09T01:43:13;16.70;99.90
44166;DHT22;30476;53.468;9.826;2022-09-09T01:45:40;16.60;99.90
44166;DHT22;30476;53.468;9.826;2022-09-09T01:48:07;16.60;99.90
44166;DHT22;30476;53.468;9.826;2022-09-09T01:50:33;16.60;99.90
44166;DHT22;30476;53.468;9.826;2022-09-09T01:53:01;16.60;99.90
44166;DHT22;30476;53.468;9.826;2022-09-09T01:55:31;16.60;99.90
44166;DHT22;30476;53.468;9.826;2022-09-09T02:00:29;16.50;99.90
44166;DHT22;30476;53.468;9.826;2022-09-09T02:05:58;16.50;99.90
44166;DHT22;30476;53.468;9.826;2022-09-09T02:08:47;16.50;99.90
44166;DHT22;30476;53.468;9.826;2022-09-09T02:11:17;16.40;99.90
44166;DHT22;30476;53.468;9.826;2022-09-09T02:13:45;16.40;99.90
44166;DHT22;30476;53.468;9.826;2022-09-09T02:16:19;16.40;99.90
44166;DHT22;30476;53.468;9.826;2022-09-09T02:19:15;16.40;99.90
44166;DHT22;30476;53.468;9.826;2022-09-09T02:21:44;16.40;99.90
44166;DHT22;30476;53.468;9.826;2022-09-09T02:24:13;16.30;99.90
44166;DHT22;30476;53.468;9.826;2022-09-09T02:26:42;16.40;99.90
44166;DHT22;30476;53.468;9.826;2022-09-09T02:29:16;16.40;99.90
44166;DHT22;30476;53.468;9.826;2022-09-09T02:31:45;16.40;99.90
44166;DHT22;30476;53.468;9.826;2022-09-09T02:34:13;16.40;99.90
44166;DHT22;30476;53.468;9.826;2022-09-09T02:36:41;16.40;99.90
44166;DHT22;30476;53.468;9.826;2022-09-09T02:39:10;16.40;99.90
44166;DHT22;30476;53.468;9.826;2022-09-09T02:41:39;16.40;99.90
44166;DHT22;30476;53.468;9.826;2022-09-09T02:44:13;16.40;99.90
44166;DHT22;30476;53.468;9.826;2022-09-09T02:50:07;16.30;99.90
44166;DHT22;30476;53.468;9.826;2022-09-09T02:52:59;16.30;99.90
44166;DHT22;30476;53.468;9.826;2022-09-09T02:55:41;16.40;99.90
44166;DHT22;30476;53.468;9.826;2022-09-09T02:58:11;16.30;99.90
44166;DHT22;30476;53.468;9.826;2022-09-09T03:00:39;16.40;99.90
44166;DHT22;30476;53.468;9.826;2022-09-09T03:03:07;16.40;99.90
44166;DHT22;30476;53.468;9.826;2022-09-09T03:05:34;16.30;99.90
44166;DHT22;30476;53.468;9.826;2022-09-09T03:08:01;16.30;99.90
44166;DHT22;30476;53.468;9.826;2022-09-09T03:10:27;16.40;99.90
44166;DHT22;30476;53.468;9.826;2022-09-09T03:12:54;16.30;99.90
44166;DHT22;30476;53.468;9.826;2022-09-09T03:15:21;16.30;99.90
44166;DHT22;30476;53.468;9.826;2022-09-09T03:17:47;16.30;99.90
44166;DHT22;30476;53.468;9.826;2022-09-09T03:20:13;16.30;99.90
44166;DHT22;30476;53.468;9.826;2022-09-09T03:22:38;16.30;99.90
44166;DHT22;30476;53.468;9.826;2022-09-09T03:25:05;16.30;99.90
44166;DHT22;30476;53.468;9.826;2022-09-09T03:27:31;16.30;99.90
44166;DHT22;30476;53.468;9.826;2022-09-09T03:29:57;16.30;99.90
44166;DHT22;30476;53.468;9.826;2022-09-09T03:32:23;16.30;99.90
44166;DHT22;30476;53.468;9.826;2022-09-09T03:34:51;16.20;99.90
44166;DHT22;30476;53.468;9.826;2022-09-09T03:37:18;16.20;99.90
44166;DHT22;30476;53.468;9.826;2022-09-09T03:39:44;16.20;99.90
44166;DHT22;30476;53.468;9.826;2022-09-09T03:42:13;16.20;99.90
44166;DHT22;30476;53.468;9.826;2022-09-09T03:44:40;16.10;99.90
44166;DHT22;30476;53.468;9.826;2022-09-09T03:47:07;16.10;99.90
44166;DHT22;30476;53.468;9.826;2022-09-09T03:49:33;16.10;99.90
44166;DHT22;30476;53.468;9.826;2022-09-09T03:51:59;16.10;99.90
44166;DHT22;30476;53.468;9.826;2022-09-09T03:54:26;16.10;99.90
44166;DHT22;30476;53.468;9.826;2022-09-09T03:56:52;16.10;99.90
44166;DHT22;30476;53.468;9.826;2022-09-09T03:59:18;16.10;99.90
44166;DHT22;30476;53.468;9.826;2022-09-09T04:01:44;16.10;99.90
44166;DHT22;30476;53.468;9.826;2022-09-09T04:04:10;16.10;99.90
44166;DHT22;30476;53.468;9.826;2022-09-09T04:06:37;16.10;99.90
44166;DHT22;30476;53.468;9.826;2022-09-09T04:09:03;16.00;99.90
44166;DHT22;30476;53.468;9.826;2022-09-09T04:11:29;16.00;99.90
44166;DHT22;30476;53.468;9.826;2022-09-09T04:13:55;16.00;99.90
44166;DHT22;30476;53.468;9.826;2022-09-09T04:16:21;16.00;99.90
44166;DHT22;30476;53.468;9.826;2022-09-09T04:18:47;16.00;99.90
44166;DHT22;30476;53.468;9.826;2022-09-09T04:21:13;16.00;99.90
44166;DHT22;30476;53.468;9.826;2022-09-09T04:23:39;16.00;99.90
44166;DHT22;30476;53.468;9.826;2022-09-09T04:26:05;16.00;99.90
44166;DHT22;30476;53.468;9.826;2022-09-09T04:28:33;16.00;99.90
44166;DHT22;30476;53.468;9.826;2022-09-09T04:31:07;16.00;99.90
44166;DHT22;30476;53.468;9.826;2022-09-09T04:33:34;16.00;99.90
44166;DHT22;30476;53.468;9.826;2022-09-09T04:36:00;16.00;99.90
44166;DHT22;30476;53.468;9.826;2022-09-09T04:38:26;16.00;99.90
44166;DHT22;30476;53.468;9.826;2022-09-09T04:40:52;16.00;99.90
44166;DHT22;30476;53.468;9.826;2022-09-09T04:43:20;16.00;99.90
44166;DHT22;30476;53.468;9.826;2022-09-09T04:45:48;16.00;99.90
44166;DHT22;30476;53.468;9.826;2022-09-09T04:48:14;16.00;99.90
44166;DHT22;30476;53.468;9.826;2022-09-09T04:50:40;16.00;99.90
44166;DHT22;30476;53.468;9.826;2022-09-09T04:53:07;15.90;99.90
44166;DHT22;30476;53.468;9.826;2022-09-09T04:55:33;16.00;99.90
44166;DHT22;30476;53.468;9.826;2022-09-09T04:58:07;15.90;99.90
44166;DHT22;30476;53.468;9.826;2022-09-09T05:00:34;16.00;99.90
44166;DHT22;30476;53.468;9.826;2022-09-09T05:03:05;16.00;99.90
44166;DHT22;30476;53.468;9.826;2022-09-09T05:05:32;16.00;99.90
44166;DHT22;30476;53.468;9.826;2022-09-09T05:08:03;16.00;99.90
44166;DHT22;30476;53.468;9.826;2022-09-09T05:10:30;16.00;99.90
44166;DHT22;30476;53.468;9.826;2022-09-09T05:12:56;16.00;99.90
44166;DHT22;30476;53.468;9.826;2022-09-09T05:15:22;16.00;99.90
44166;DHT22;30476;53.468;9.826;2022-09-09T05:17:48;16.00;99.90
44166;DHT22;30476;53.468;9.826;2022-09-09T05:20:14;16.00;99.90
44166;DHT22;30476;53.468;9.826;2022-09-09T05:22:40;16.00;99.90
44166;DHT22;30476;53.468;9.826;2022-09-09T05:25:06;16.00;99.90
44166;DHT22;30476;53.468;9.826;2022-09-09T05:27:36;16.00;99.90
44166;DHT22;30476;53.468;9.826;2022-09-09T05:30:03;16.00;99.90
44166;DHT22;30476;53.468;9.826;2022-09-09T05:32:30;16.00;99.90
44166;DHT22;30476;53.468;9.826;2022-09-09T05:34:59;16.00;99.90
44166;DHT22;30476;53.468;9.826;2022-09-09T05:37:25;16.00;99.90
44166;DHT22;30476;53.468;9.826;2022-09-09T05:39:51;16.00;99.90
44166;DHT22;30476;53.468;9.826;2022-09-09T05:42:17;16.00;99.90
44166;DHT22;30476;53.468;9.826;2022-09-09T05:44:42;16.10;99.90
44166;DHT22;30476;53.468;9.826;2022-09-09T05:47:08;16.10;99.90
44166;DHT22;30476;53.468;9.826;2022-09-09T05:49:35;16.00;99.90
44166;DHT22;30476;53.468;9.826;2022-09-09T05:52:01;16.10;99.90
44166;DHT22;30476;53.468;9.826;2022-09-09T05:54:29;16.10;99.90
44166;DHT22;30476;53.468;9.826;2022-09-09T05:56:55;16.10;99.90
44166;DHT22;30476;53.468;9.826;2022-09-09T05:59:20;16.10;99.90
44166;DHT22;30476;53.468;9.826;2022-09-09T06:01:48;16.10;99.90
44166;DHT22;30476;53.468;9.826;2022-09-09T06:04:14;16.20;99.90
44166;DHT22;30476;53.468;9.826;2022-09-09T06:06:40;16.20;99.90
44166;DHT22;30476;53.468;9.826;2022-09-09T06:09:08;16.20;99.90
44166;DHT22;30476;53.468;9.826;2022-09-09T06:11:37;16.20;99.90
44166;DHT22;30476;53.468;9.826;2022-09-09T06:14:04;16.20;99.90
44166;DHT22;30476;53.468;9.826;2022-09-09T06:16:30;16.30;99.90
44166;DHT22;30476;53.468;9.826;2022-09-09T06:18:58;16.30;99.90
44166;DHT22;30476;53.468;9.826;2022-09-09T06:21:26;16.30;99.90
44166;DHT22;30476;53.468;9.826;2022-09-09T06:23:53;16.30;99.90
44166;DHT22;30476;53.468;9.826;2022-09-09T06:26:19;16.30;99.90
44166;DHT22;30476;53.468;9.826;2022-09-09T06:28:47;16.30;99.90
44166;DHT22;30476;53.468;9.826;2022-09-09T06:31:15;16.30;99.90
44166;DHT22;30476;53.468;9.826;2022-09-09T06:33:49;16.40;99.90
44166;DHT22;30476;53.468;9.826;2022-09-09T06:36:20;16.30;99.90
44166;DHT22;30476;53.468;9.826;2022-09-09T06:38:47;16.40;99.90
44166;DHT22;30476;53.468;9.826;2022-09-09T06:41:19;16.40;99.90
44166;DHT22;30476;53.468;9.826;2022-09-09T06:43:46;16.40;99.90
44166;DHT22;30476;53.468;9.826;2022-09-09T06:46:14;16.40;99.90
44166;DHT22;30476;53.468;9.826;2022-09-09T06:48:41;16.40;99.90
44166;DHT22;30476;53.468;9.826;2022-09-09T06:51:21;16.50;99.90
44166;DHT22;30476;53.468;9.826;2022-09-09T06:53:49;16.50;99.90
44166;DHT22;30476;53.468;9.826;2022-09-09T06:56:22;16.50;99.90
44166;DHT22;30476;53.468;9.826;2022-09-09T06:58:50;16.60;99.90
44166;DHT22;30476;53.468;9.826;2022-09-09T07:01:22;16.60;99.90
44166;DHT22;30476;53.468;9.826;2022-09-09T07:03:50;16.60;99.90
44166;DHT22;30476;53.468;9.826;2022-09-09T07:06:21;16.60;99.90
44166;DHT22;30476;53.468;9.826;2022-09-09T07:08:50;16.60;99.90
44166;DHT22;30476;53.468;9.826;2022-09-09T07:11:17;16.60;99.90
44166;DHT22;30476;53.468;9.826;2022-09-09T07:13:43;16.70;99.90
44166;DHT22;30476;53.468;9.826;2022-09-09T07:16:11;16.70;99.90
44166;DHT22;30476;53.468;9.826;2022-09-09T07:18:39;16.70;99.90
44166;DHT22;30476;53.468;9.826;2022-09-09T07:21:05;16.80;99.90
44166;DHT22;30476;53.468;9.826;2022-09-09T07:23:32;16.80;99.90
44166;DHT22;30476;53.468;9.826;2022-09-09T07:25:58;16.90;99.90
44166;DHT22;30476;53.468;9.826;2022-09-09T07:28:25;16.90;99.90
44166;DHT22;30476;53.468;9.826;2022-09-09T07:30:55;16.90;99.90
44166;DHT22;30476;53.468;9.826;2022-09-09T07:33:22;16.90;99.90
44166;DHT22;30476;53.468;9.826;2022-09-09T07:35:48;17.00;99.90
44166;DHT22;30476;53.468;9.826;2022-09-09T07:38:13;17.00;99.90
44166;DHT22;30476;53.468;9.826;2022-09-09T07:40:40;17.10;99.90
44166;DHT22;30476;53.468;9.826;2022-09-09T07:43:06;17.10;99.90
44166;DHT22;30476;53.468;9.826;2022-09-09T07:45:33;17.20;99.90
44166;DHT22;30476;53.468;9.826;2022-09-09T07:48:00;17.20;99.90
44166;DHT22;30476;53.468;9.826;2022-09-09T07:50:26;17.20;99.90
44166;DHT22;30476;53.468;9.826;2022-09-09T07:52:52;17.30;99.90
44166;DHT22;30476;53.468;9.826;2022-09-09T07:55:22;17.30;99.90
44166;DHT22;30476;53.468;9.826;2022-09-09T07:57:55;17.30;99.90
44166;DHT22;30476;53.468;9.826;2022-09-09T08:00:21;17.40;99.90
44166;DHT22;30476;53.468;9.826;2022-09-09T08:02:48;17.40;99.90
44166;DHT22;30476;53.468;9.826;2022-09-09T08:05:14;17.50;99.90
44166;DHT22;30476;53.468;9.826;2022-09-09T08:07:40;17.50;99.90
44166;DHT22;30476;53.468;9.826;2022-09-09T08:10:06;17.50;99.90
44166;DHT22;30476;53.468;9.826;2022-09-09T08:12:32;17.60;99.90
44166;DHT22;30476;53.468;9.826;2022-09-09T08:14:58;17.70;99.90
44166;DHT22;30476;53.468;9.826;2022-09-09T08:17:24;17.70;99.90
44166;DHT22;30476;53.468;9.826;2022-09-09T08:19:50;17.80;99.90
44166;DHT22;30476;53.468;9.826;2022-09-09T08:22:16;17.80;99.90
44166;DHT22;30476;53.468;9.826;2022-09-09T08:24:41;17.80;99.90
44166;DHT22;30476;53.468;9.826;2022-09-09T08:27:08;17.90;99.90
44166;DHT22;30476;53.468;9.826;2022-09-09T08:29:35;18.00;99.90
44166;DHT22;30476;53.468;9.826;2022-09-09T08:32:03;18.00;99.90
44166;DHT22;30476;53.468;9.826;2022-09-09T08:34:30;18.00;99.90
44166;DHT22;30476;53.468;9.826;2022-09-09T08:36:56;18.10;99.90
44166;DHT22;30476;53.468;9.826;2022-09-09T08:39:22;18.10;99.90
44166;DHT22;30476;53.468;9.826;2022-09-09T08:57:48;18.60;99.90
44166;DHT22;30476;53.468;9.826;2022-09-09T09:00:14;18.70;99.90
44166;DHT22;30476;53.468;9.826;2022-09-09T09:05:49;18.90;99.90
44166;DHT22;30476;53.468;9.826;2022-09-09T09:08:35;19.10;99.90
44166;DHT22;30476;53.468;9.826;2022-09-09T09:11:04;19.20;99.90
44166;DHT22;30476;53.468;9.826;2022-09-09T09:13:54;19.20;99.90
44166;DHT22;30476;53.468;9.826;2022-09-09T09:19:15;19.40;99.90
44166;DHT22;30476;53.468;9.826;2022-09-09T09:21:41;19.50;99.90
44166;DHT22;30476;53.468;9.826;2022-09-09T09:24:20;19.50;99.90
44166;DHT22;30476;53.468;9.826;2022-09-09T09:26:49;19.50;99.90
44166;DHT22;30476;53.468;9.826;2022-09-09T09:29:19;19.60;99.90
44166;DHT22;30476;53.468;9.826;2022-09-09T09:31:52;19.70;99.90
44166;DHT22;30476;53.468;9.826;2022-09-09T09:34:21;19.70;99.90
44166;DHT22;30476;53.468;9.826;2022-09-09T09:36:54;19.80;99.90
44166;DHT22;30476;53.468;9.826;2022-09-09T09:39:27;19.90;99.90
44166;DHT22;30476;53.468;9.826;2022-09-09T09:41:54;19.90;99.90
44166;DHT22;30476;53.468;9.826;2022-09-09T09:44:31;20.00;99.90
44166;DHT22;30476;53.468;9.826;2022-09-09T09:49:39;20.20;99.90
44166;DHT22;30476;53.468;9.826;2022-09-09T09:52:06;20.30;99.90
44166;DHT22;30476;53.468;9.826;2022-09-09T09:54:38;20.40;99.90
44166;DHT22;30476;53.468;9.826;2022-09-09T09:57:11;20.40;99.00
44166;DHT22;30476;53.468;9.826;2022-09-09T09:59:37;20.50;98.50
44166;DHT22;30476;53.468;9.826;2022-09-09T10:02:18;20.60;98.90
44166;DHT22;30476;53.468;9.826;2022-09-09T10:04:45;20.60;98.30
44166;DHT22;30476;53.468;9.826;2022-09-09T10:07:22;20.70;98.40
44166;DHT22;30476;53.468;9.826;2022-09-09T10:09:52;20.80;99.20
44166;DHT22;30476;53.468;9.826;2022-09-09T10:12:41;20.90;98.80
44166;DHT22;30476;53.468;9.826;2022-09-09T10:15:38;21.00;98.90
44166;DHT22;30476;53.468;9.826;2022-09-09T10:18:40;21.20;98.10
44166;DHT22;30476;53.468;9.826;2022-09-09T10:21:27;21.40;98.20
44166;DHT22;30476;53.468;9.826;2022-09-09T10:27:05;21.70;98.00
44166;DHT22;30476;53.468;9.826;2022-09-09T10:32:38;21.90;96.90
44166;DHT22;30476;53.468;9.826;2022-09-09T10:35:14;22.00;97.10
44166;DHT22;30476;53.468;9.826;2022-09-09T10:48:42;22.50;96.20
44166;DHT22;30476;53.468;9.826;2022-09-09T10:56:44;22.80;95.80
44166;DHT22;30476;53.468;9.826;2022-09-09T10:59:17;22.90;95.20
44166;DHT22;30476;53.468;9.826;2022-09-09T11:01:54;23.00;94.80
44166;DHT22;30476;53.468;9.826;2022-09-09T11:04:27;23.10;94.50
44166;DHT22;30476;53.468;9.826;2022-09-09T11:06:56;23.20;93.50
44166;DHT22;30476;53.468;9.826;2022-09-09T11:09:26;23.30;93.60
44166;DHT22;30476;53.468;9.826;2022-09-09T11:11:55;23.30;93.50
44166;DHT22;30476;53.468;9.826;2022-09-09T11:14:31;23.50;93.90
44166;DHT22;30476;53.468;9.826;2022-09-09T11:17:04;23.60;92.60
44166;DHT22;30476;53.468;9.826;2022-09-09T11:19:36;23.70;93.20
44166;DHT22;30476;53.468;9.826;2022-09-09T11:22:46;23.90;92.60
44166;DHT22;30476;53.468;9.826;2022-09-09T11:25:27;23.90;93.00
44166;DHT22;30476;53.468;9.826;2022-09-09T11:28:05;23.90;91.20
44166;DHT22;30476;53.468;9.826;2022-09-09T11:31:05;23.90;91.20
44166;DHT22;30476;53.468;9.826;2022-09-09T11:41:53;23.70;92.10
44166;DHT22;30476;53.468;9.826;2022-09-09T11:44:28;23.70;92.50
44166;DHT22;30476;53.468;9.826;2022-09-09T11:46:55;23.70;93.30
44166;DHT22;30476;53.468;9.826;2022-09-09T11:49:29;23.90;93.20
44166;DHT22;30476;53.468;9.826;2022-09-09T11:51:57;23.90;92.70
44166;DHT22;30476;53.468;9.826;2022-09-09T11:54:46;24.00;91.60
44166;DHT22;30476;53.468;9.826;2022-09-09T11:57:47;24.20;92.20
44166;DHT22;30476;53.468;9.826;2022-09-09T12:00:48;24.30;91.10
44166;DHT22;30476;53.468;9.826;2022-09-09T12:03:41;24.60;91.10
44166;DHT22;30476;53.468;9.826;2022-09-09T12:06:13;24.80;92.60
44166;DHT22;30476;53.468;9.826;2022-09-09T12:08:51;25.00;91.20
44166;DHT22;30476;53.468;9.826;2022-09-09T12:11:29;25.20;89.10
44166;DHT22;30476;53.468;9.826;2022-09-09T12:13:58;25.30;86.50
44166;DHT22;30476;53.468;9.826;2022-09-09T12:16:33;25.40;86.20
44166;DHT22;30476;53.468;9.826;2022-09-09T12:19:18;25.50;88.30
44166;DHT22;30476;53.468;9.826;2022-09-09T12:22:12;25.60;87.00
44166;DHT22;30476;53.468;9.826;2022-09-09T12:24:55;25.50;85.30
44166;DHT22;30476;53.468;9.826;2022-09-09T12:27:49;25.50;84.80
44166;DHT22;30476;53.468;9.826;2022-09-09T12:30:24;25.40;85.10
44166;DHT22;30476;53.468;9.826;2022-09-09T12:33:11;25.40;84.30
44166;DHT22;30476;53.468;9.826;2022-09-09T12:35:39;25.30;84.60
44166;DHT22;30476;53.468;9.826;2022-09-09T12:38:13;25.20;84.60
44166;DHT22;30476;53.468;9.826;2022-09-09T12:40:42;25.10;84.20
44166;DHT22;30476;53.468;9.826;2022-09-09T12:43:18;24.90;83.20
44166;DHT22;30476;53.468;9.826;2022-09-09T12:45:45;24.80;84.40
44166;DHT22;30476;53.468;9.826;2022-09-09T12:48:12;24.80;85.10
44166;DHT22;30476;53.468;9.826;2022-09-09T12:50:51;24.60;84.70
44166;DHT22;30476;53.468;9.826;2022-09-09T12:53:33;24.50;85.50
44166;DHT22;30476;53.468;9.826;2022-09-09T12:56:08;24.40;85.10
44166;DHT22;30476;53.468;9.826;2022-09-09T12:58:36;24.20;84.70
44166;DHT22;30476;53.468;9.826;2022-09-09T13:01:05;24.10;85.00
44166;DHT22;30476;53.468;9.826;2022-09-09T13:03:32;24.00;85.30
44166;DHT22;30476;53.468;9.826;2022-09-09T13:06:12;23.90;85.70
44166;DHT22;30476;53.468;9.826;2022-09-09T13:08:38;23.80;86.80
44166;DHT22;30476;53.468;9.826;2022-09-09T13:11:09;23.60;86.80
44166;DHT22;30476;53.468;9.826;2022-09-09T13:13:40;23.50;86.10
44166;DHT22;30476;53.468;9.826;2022-09-09T13:16:25;23.40;85.60
44166;DHT22;30476;53.468;9.826;2022-09-09T13:18:52;23.20;85.40
44166;DHT22;30476;53.468;9.826;2022-09-09T13:21:19;23.00;85.60
44166;DHT22;30476;53.468;9.826;2022-09-09T13:23:49;22.80;86.30
44166;DHT22;30476;53.468;9.826;2022-09-09T13:26:25;22.70;88.10
44166;DHT22;30476;53.468;9.826;2022-09-09T13:28:52;22.60;89.90
44166;DHT22;30476;53.468;9.826;2022-09-09T13:31:24;22.40;90.40
44166;DHT22;30476;53.468;9.826;2022-09-09T13:33:53;22.30;91.00
44166;DHT22;30476;53.468;9.826;2022-09-09T13:36:29;22.20;91.20
44166;DHT22;30476;53.468;9.826;2022-09-09T13:38:57;22.10;91.90
44166;DHT22;30476;53.468;9.826;2022-09-09T13:41:36;22.00;92.30
44166;DHT22;30476;53.468;9.826;2022-09-09T13:44:03;21.80;92.70
44166;DHT22;30476;53.468;9.826;2022-09-09T13:46:36;21.70;93.20
44166;DHT22;30476;53.468;9.826;2022-09-09T13:51:42;21.50;94.20
44166;DHT22;30476;53.468;9.826;2022-09-09T13:54:11;21.40;94.40
44166;DHT22;30476;53.468;9.826;2022-09-09T13:56:38;21.30;94.70
44166;DHT22;30476;53.468;9.826;2022-09-09T13:59:08;21.20;94.70
44166;DHT22;30476;53.468;9.826;2022-09-09T14:01:35;21.10;95.20
44166;DHT22;30476;53.468;9.826;2022-09-09T14:04:01;21.00;95.50
44166;DHT22;30476;53.468;9.826;2022-09-09T14:06:27;21.00;95.70
44166;DHT22;30476;53.468;9.826;2022-09-09T14:08:53;20.90;95.90
44166;DHT22;30476;53.468;9.826;2022-09-09T14:11:20;20.80;95.90
44166;DHT22;30476;53.468;9.826;2022-09-09T14:13:47;20.70;95.90
44166;DHT22;30476;53.468;9.826;2022-09-09T14:16:16;20.70;96.30
44166;DHT22;30476;53.468;9.826;2022-09-09T14:18:44;20.60;96.20
44166;DHT22;30476;53.468;9.826;2022-09-09T14:21:10;20.50;96.30
44166;DHT22;30476;53.468;9.826;2022-09-09T14:23:37;20.50;96.50
44166;DHT22;30476;53.468;9.826;2022-09-09T14:26:07;20.40;96.60
44166;DHT22;30476;53.468;9.826;2022-09-09T14:28:34;20.30;96.30
44166;DHT22;30476;53.468;9.826;2022-09-09T14:31:02;20.30;96.30
44166;DHT22;30476;53.468;9.826;2022-09-09T14:33:28;20.20;96.30
44166;DHT22;30476;53.468;9.826;2022-09-09T14:35:58;20.10;96.50
44166;DHT22;30476;53.468;9.826;2022-09-09T14:38:25;20.10;96.80
44166;DHT22;30476;53.468;9.826;2022-09-09T14:40:51;20.00;97.00
44166;DHT22;30476;53.468;9.826;2022-09-09T14:43:17;20.00;96.90
44166;DHT22;30476;53.468;9.826;2022-09-09T14:45:42;19.90;97.10
44166;DHT22;30476;53.468;9.826;2022-09-09T14:48:09;19.90;97.50
44166;DHT22;30476;53.468;9.826;2022-09-09T14:50:34;19.80;97.60
44166;DHT22;30476;53.468;9.826;2022-09-09T14:53:05;19.70;97.80
44166;DHT22;30476;53.468;9.826;2022-09-09T14:55:31;19.70;98.10
44166;DHT22;30476;53.468;9.826;2022-09-09T14:57:57;19.60;98.10
44166;DHT22;30476;53.468;9.826;2022-09-09T15:00:24;19.50;98.20
44166;DHT22;30476;53.468;9.826;2022-09-09T15:02:53;19.50;98.40
44166;DHT22;30476;53.468;9.826;2022-09-09T15:05:20;19.50;98.60
44166;DHT22;30476;53.468;9.826;2022-09-09T15:07:46;19.50;98.80
44166;DHT22;30476;53.468;9.826;2022-09-09T15:10:14;19.50;98.70
44166;DHT22;30476;53.468;9.826;2022-09-09T15:12:40;19.50;98.90
44166;DHT22;30476;53.468;9.826;2022-09-09T15:15:07;19.40;99.10
44166;DHT22;30476;53.468;9.826;2022-09-09T15:17:34;19.40;99.20
44166;DHT22;30476;53.468;9.826;2022-09-09T15:20:00;19.40;99.60
44166;DHT22;30476;53.468;9.826;2022-09-09T15:22:25;19.40;99.50
44166;DHT22;30476;53.468;9.826;2022-09-09T15:24:51;19.50;99.70
44166;DHT22;30476;53.468;9.826;2022-09-09T15:27:17;19.50;99.80
44166;DHT22;30476;53.468;9.826;2022-09-09T15:29:43;19.50;99.90
44166;DHT22;30476;53.468;9.826;2022-09-09T15:32:10;19.50;99.90
44166;DHT22;30476;53.468;9.826;2022-09-09T15:34:35;19.60;99.80
44166;DHT22;30476;53.468;9.826;2022-09-09T15:37:01;19.60;99.70
44166;DHT22;30476;53.468;9.826;2022-09-09T15:39:27;19.60;99.70
44166;DHT22;30476;53.468;9.826;2022-09-09T15:41:53;19.60;99.90
44166;DHT22;30476;53.468;9.826;2022-09-09T15:44:19;19.70;99.90
44166;DHT22;30476;53.468;9.826;2022-09-09T15:46:49;19.60;99.80
44166;DHT22;30476;53.468;9.826;2022-09-09T15:49:18;19.60;99.80
44166;DHT22;30476;53.468;9.826;2022-09-09T15:51:57;19.70;99.90
44166;DHT22;30476;53.468;9.826;2022-09-09T15:54:25;19.70;99.90
44166;DHT22;30476;53.468;9.826;2022-09-09T15:56:53;19.70;99.90
44166;DHT22;30476;53.468;9.826;2022-09-09T15:59:24;19.80;99.90
44166;DHT22;30476;53.468;9.826;2022-09-09T16:01:51;19.80;99.60
44166;DHT22;30476;53.468;9.826;2022-09-09T16:04:20;19.80;99.60
44166;DHT22;30476;53.468;9.826;2022-09-09T16:07:09;19.80;99.60
44166;DHT22;30476;53.468;9.826;2022-09-09T16:09:35;19.80;99.50
44166;DHT22;30476;53.468;9.826;2022-09-09T16:12:03;19.80;99.60
44166;DHT22;30476;53.468;9.826;2022-09-09T16:14:32;19.80;99.40
44166;DHT22;30476;53.468;9.826;2022-09-09T16:17:02;19.80;99.20
44166;DHT22;30476;53.468;9.826;2022-09-09T16:19:28;19.80;99.10
44166;DHT22;30476;53.468;9.826;2022-09-09T16:21:54;19.80;99.10
44166;DHT22;30476;53.468;9.826;2022-09-09T16:24:20;19.80;99.10
44166;DHT22;30476;53.468;9.826;2022-09-09T16:26:48;19.80;98.90
44166;DHT22;30476;53.468;9.826;2022-09-09T16:29:15;19.80;98.80
44166;DHT22;30476;53.468;9.826;2022-09-09T16:31:44;19.80;98.80
44166;DHT22;30476;53.468;9.826;2022-09-09T16:34:10;19.80;98.80
44166;DHT22;30476;53.468;9.826;2022-09-09T16:36:37;19.80;98.70
44166;DHT22;30476;53.468;9.826;2022-09-09T16:39:08;19.70;98.60
44166;DHT22;30476;53.468;9.826;2022-09-09T16:41:35;19.70;98.50
44166;DHT22;30476;53.468;9.826;2022-09-09T16:44:04;19.70;98.50
44166;DHT22;30476;53.468;9.826;2022-09-09T16:46:32;19.60;98.70
44166;DHT22;30476;53.468;9.826;2022-09-09T16:49:00;19.60;98.30
44166;DHT22;30476;53.468;9.826;2022-09-09T16:51:31;19.50;98.30
44166;DHT22;30476;53.468;9.826;2022-09-09T16:53:59;19.50;98.20
44166;DHT22;30476;53.468;9.826;2022-09-09T16:56:28;19.40;98.00
44166;DHT22;30476;53.468;9.826;2022-09-09T16:58:59;19.40;98.10
44166;DHT22;30476;53.468;9.826;2022-09-09T17:01:28;19.30;98.00
44166;DHT22;30476;53.468;9.826;2022-09-09T17:03:55;19.30;98.10
44166;DHT22;30476;53.468;9.826;2022-09-09T17:06:21;19.20;98.10
44166;DHT22;30476;53.468;9.826;2022-09-09T17:08:47;19.10;98.10
44166;DHT22;30476;53.468;9.826;2022-09-09T17:11:15;19.10;98.10
44166;DHT22;30476;53.468;9.826;2022-09-09T17:13:42;19.10;98.40
44166;DHT22;30476;53.468;9.826;2022-09-09T17:16:09;19.00;98.40
44166;DHT22;30476;53.468;9.826;2022-09-09T17:18:36;18.90;98.60
44166;DHT22;30476;53.468;9.826;2022-09-09T17:21:06;18.90;98.60
44166;DHT22;30476;53.468;9.826;2022-09-09T17:23:34;18.80;98.60
44166;DHT22;30476;53.468;9.826;2022-09-09T17:26:04;18.80;98.60
44166;DHT22;30476;53.468;9.826;2022-09-09T17:28:31;18.70;98.50
44166;DHT22;30476;53.468;9.826;2022-09-09T17:30:58;18.60;98.90
44166;DHT22;30476;53.468;9.826;2022-09-09T17:33:27;18.60;99.10